Time;durP1;ratioP1;P1;durP2;ratioP2;P2;SDS_P1;SDS_P2;PMS_P1;PMS_P2;Temp;Humidity;BMP_temperature;BMP_pressure;BME280_temperature;BME280_humidity;BME280_pressure;Samples;Min_cycle;Max_cycle;Signal;HPM_P1;HPM_P2
2023/02/18 00:00:38;;;;;;;;;;;;;;;10.59;36.64;99467.03;4976191;28;20004;-71
2023/02/18 00:03:03;;;;;;;;;;;;;;;10.60;36.56;99460.91;4976574;28;20300;-72
2023/02/18 00:05:28;;;;;;;;;;;;;;;10.60;36.80;99453.06;4993876;28;19924;-72
2023/02/18 00:07:54;;;;;;;;;;;;;;;10.60;36.59;99444.41;4976478;28;19924;-73
2023/02/18 00:10:19;;;;;;;;;;;;;;;10.58;36.71;99441.91;4976171;28;19918;-73
2023/02/18 00:12:44;;;;;;;;;;;;;;;10.58;36.64;99441.03;4976555;28;19928;-72
2023/02/18 00:15:10;;;;;;;;;;;;;;;10.57;36.50;99439.38;4975645;28;19922;-72
2023/02/18 00:17:35;;;;;;;;;;;;;;;10.57;36.46;99426.34;4976435;28;20349;-72
2023/02/18 00:20:01;;;;;;;;;;;;;;;10.57;36.53;99427.16;4976194;28;19924;-71
2023/02/18 00:22:26;;;;;;;;;;;;;;;10.58;36.58;99425.38;4976230;28;19992;-73
2023/02/18 00:24:51;;;;;;;;;;;;;;;10.57;36.56;99429.78;4975994;28;19922;-71
2023/02/18 00:27:17;;;;;;;;;;;;;;;10.55;36.62;99429.03;4976331;28;19968;-71
2023/02/18 00:29:42;;;;;;;;;;;;;;;10.53;36.62;99422.22;4975773;28;19972;-71
2023/02/18 00:32:07;;;;;;;;;;;;;;;10.49;36.59;99427.66;4976070;28;19922;-71
2023/02/18 00:34:33;;;;;;;;;;;;;;;10.45;36.53;99414.91;4976385;28;19929;-72
2023/02/18 00:36:58;;;;;;;;;;;;;;;10.43;36.48;99417.59;4976339;28;19918;-72
2023/02/18 00:39:23;;;;;;;;;;;;;;;10.42;36.63;99415.09;4984342;28;19922;-72
2023/02/18 00:41:48;;;;;;;;;;;;;;;10.38;36.88;99405.81;4992275;28;19935;-71
2023/02/18 00:44:14;;;;;;;;;;;;;;;10.38;36.79;99403.19;4975819;28;19972;-72
2023/02/18 00:46:39;;;;;;;;;;;;;;;10.37;37.10;99393.69;4992336;28;20389;-72
2023/02/18 00:49:04;;;;;;;;;;;;;;;10.36;36.94;99386.78;4991718;28;19922;-73
2023/02/18 00:51:30;;;;;;;;;;;;;;;10.36;37.00;99392.88;4975668;28;19918;-72
2023/02/18 00:53:55;;;;;;;;;;;;;;;10.34;37.03;99386.06;4992171;28;19948;-72
2023/02/18 00:56:21;;;;;;;;;;;;;;;10.30;37.09;99388.84;4992467;28;19918;-72
2023/02/18 00:58:46;;;;;;;;;;;;;;;10.25;37.06;99382.25;4991344;28;19925;-72
2023/02/18 01:01:11;;;;;;;;;;;;;;;10.21;37.20;99389.41;4992015;28;20337;-72
2023/02/18 01:03:36;;;;;;;;;;;;;;;10.17;37.39;99387.97;4970223;28;19973;-71
2023/02/18 01:06:02;;;;;;;;;;;;;;;10.13;37.42;99387.28;4975750;28;19922;-71
2023/02/18 01:08:28;;;;;;;;;;;;;;;10.09;37.39;99385.00;4975734;28;19921;-71
2023/02/18 01:10:53;;;;;;;;;;;;;;;10.04;37.36;99376.63;4975857;28;20373;-72
2023/02/18 01:13:19;;;;;;;;;;;;;;;9.97;37.63;99373.56;4959524;28;19929;-72
2023/02/18 01:15:45;;;;;;;;;;;;;;;9.93;37.67;99367.72;4959232;28;19921;-72
2023/02/18 01:18:10;;;;;;;;;;;;;;;9.93;37.56;99365.13;4959463;28;20408;-72
2023/02/18 01:20:36;;;;;;;;;;;;;;;9.93;37.67;99359.91;4993075;28;20036;-72
2023/02/18 01:23:01;;;;;;;;;;;;;;;9.92;37.54;99360.81;4959449;28;19972;-72
2023/02/18 01:25:27;;;;;;;;;;;;;;;9.90;37.59;99354.06;4959666;28;19918;-72
2023/02/18 01:27:52;;;;;;;;;;;;;;;9.88;37.76;99358.50;4963223;28;19956;-72
2023/02/18 01:30:17;;;;;;;;;;;;;;;9.85;37.68;99356.09;4996531;28;19921;-72
2023/02/18 01:32:43;;;;;;;;;;;;;;;9.83;37.90;99350.97;4963209;28;20111;-72
2023/02/18 01:35:10;;;;;;;;;;;;;;;9.78;37.85;99346.03;4978809;28;19918;-71
2023/02/18 01:37:35;;;;;;;;;;;;;;;9.76;38.04;99341.88;4963523;28;19922;-70
2023/02/18 01:40:00;;;;;;;;;;;;;;;9.72;38.01;99345.59;4991804;28;20324;-71
2023/02/18 01:42:27;;;;;;;;;;;;;;;9.73;38.14;99349.91;4995557;28;20283;-71
2023/02/18 01:44:52;;;;;;;;;;;;;;;9.73;37.75;99340.28;4995286;28;19918;-71
2023/02/18 01:47:17;;;;;;;;;;;;;;;9.76;37.54;99340.09;4995240;28;19968;-71
2023/02/18 01:49:45;;;;;;;;;;;;;;;9.77;37.68;99333.97;4978892;28;20015;-71
2023/02/18 01:52:20;;;;;;;;;;;;;;;9.80;37.84;99342.50;4995172;28;20332;-71
2023/02/18 01:54:51;;;;;;;;;;;;;;;9.81;37.65;99346.81;4995100;28;19957;-71
2023/02/18 01:57:35;;;;;;;;;;;;;;;9.80;37.56;99339.91;4978911;28;19976;-71
2023/02/18 02:00:00;;;;;;;;;;;;;;;9.81;37.51;99339.81;4978739;28;19918;-71
2023/02/18 02:02:26;;;;;;;;;;;;;;;9.80;37.63;99338.13;4996208;28;20282;-71
2023/02/18 02:04:51;;;;;;;;;;;;;;;9.79;37.55;99339.09;4978696;28;19957;-71
2023/02/18 02:07:17;;;;;;;;;;;;;;;9.77;37.69;99333.09;4994902;28;19918;-70
2023/02/18 02:09:42;;;;;;;;;;;;;;;9.75;37.74;99330.59;4978580;28;19925;-70
2023/02/18 02:12:21;;;;;;;;;;;;;;;9.74;37.74;99341.13;4994106;28;19922;-70
2023/02/18 02:14:46;;;;;;;;;;;;;;;9.68;37.84;99338.94;4978495;28;19976;-71
2023/02/18 02:17:30;;;;;;;;;;;;;;;9.65;38.01;99333.91;4994563;28;20012;-71
2023/02/18 02:20:10;;;;;;;;;;;;;;;9.64;37.83;99337.44;4995733;28;20422;-71
2023/02/18 02:22:48;;;;;;;;;;;;;;;9.61;38.10;99325.41;4994587;28;19918;-71
2023/02/18 02:25:13;;;;;;;;;;;;;;;9.59;38.26;99327.28;4994170;28;19926;-71
2023/02/18 02:27:54;;;;;;;;;;;;;;;9.56;38.37;99330.91;4994408;28;20077;-70
2023/02/18 02:30:19;;;;;;;;;;;;;;;9.54;38.29;99340.63;4977891;28;20304;-71
2023/02/18 02:32:50;;;;;;;;;;;;;;;9.52;37.96;99337.28;4994444;28;19917;-70
2023/02/18 02:35:32;;;;;;;;;;;;;;;9.51;38.37;99332.97;4978191;28;19925;-71
2023/02/18 02:38:05;;;;;;;;;;;;;;;9.48;38.46;99335.78;4977215;28;20352;-71
2023/02/18 02:40:40;;;;;;;;;;;;;;;9.46;38.68;99335.03;4994109;28;20393;-71
2023/02/18 02:43:05;;;;;;;;;;;;;;;9.43;38.63;99332.63;4977957;28;19921;-72
2023/02/18 02:45:49;;;;;;;;;;;;;;;9.38;38.70;99332.09;4994311;28;20450;-72
2023/02/18 02:48:33;;;;;;;;;;;;;;;9.32;38.37;99325.47;4994020;28;19928;-71
2023/02/18 02:51:07;;;;;;;;;;;;;;;9.29;38.52;99324.84;4995606;28;19921;-71
2023/02/18 02:53:33;;;;;;;;;;;;;;;9.24;39.05;99336.34;4995337;28;20373;-70
2023/02/18 02:55:58;;;;;;;;;;;;;;;9.21;38.99;99325.28;4977816;28;19968;-70
2023/02/18 02:58:24;;;;;;;;;;;;;;;9.18;39.08;99326.31;4977696;28;19918;-71
2023/02/18 03:01:19;;;;;;;;;;;;;;;9.15;39.25;99328.28;4977676;28;19922;-70
2023/02/18 03:04:03;;;;;;;;;;;;;;;9.14;38.90;99331.81;4919023;29;19978;-70
2023/02/18 03:06:38;;;;;;;;;;;;;;;9.13;39.28;99333.56;4919088;29;19919;-71
2023/02/18 03:09:06;;;;;;;;;;;;;;;9.11;39.29;99332.84;4935259;29;20050;-70
2023/02/18 03:11:33;;;;;;;;;;;;;;;9.29;45.25;99333.47;4923537;29;20473;-72
2023/02/18 03:14:04;;;;;;;;;;;;;;;9.51;45.96;99338.19;4918832;29;19923;-69
2023/02/18 03:16:38;;;;;;;;;;;;;;;9.56;44.43;99337.91;4919002;29;19921;-71
2023/02/18 03:19:07;;;;;;;;;;;;;;;9.57;43.08;99334.38;4902580;29;19927;-71
2023/02/18 03:21:34;;;;;;;;;;;;;;;9.57;41.81;99337.00;4934675;29;19921;-71
2023/02/18 03:24:11;;;;;;;;;;;;;;;9.56;41.43;99330.91;4902886;29;19955;-71
2023/02/18 03:26:39;;;;;;;;;;;;;;;9.54;40.71;99342.38;4918698;29;19957;-70
2023/02/18 03:29:04;;;;;;;;;;;;;;;9.53;40.48;99330.28;4902608;29;19930;-71
2023/02/18 03:31:29;;;;;;;;;;;;;;;9.51;39.84;99330.38;4918769;29;19919;-70
2023/02/18 03:33:56;;;;;;;;;;;;;;;9.51;39.54;99332.16;4902717;29;19918;-69
2023/02/18 03:36:21;;;;;;;;;;;;;;;9.49;39.58;99334.00;4902795;29;19926;-70
2023/02/18 03:38:59;;;;;;;;;;;;;;;9.47;39.71;99343.69;4918274;29;19918;-70
2023/02/18 03:41:24;;;;;;;;;;;;;;;9.40;39.66;99343.25;4981134;28;20020;-70
2023/02/18 03:43:59;;;;;;;;;;;;;;;9.36;39.65;99349.56;4964072;28;20017;-70
2023/02/18 03:46:24;;;;;;;;;;;;;;;9.33;39.45;99342.78;4956790;28;20424;-70
2023/02/18 03:48:50;;;;;;;;;;;;;;;9.31;39.23;99349.84;4940701;28;19922;-70
2023/02/18 03:51:16;;;;;;;;;;;;;;;9.28;39.11;99349.19;4957006;28;19985;-69
2023/02/18 03:53:41;;;;;;;;;;;;;;;9.26;39.29;99349.28;4974484;28;19980;-72
2023/02/18 03:56:06;;;;;;;;;;;;;;;9.24;39.14;99345.94;4957467;28;19918;-70
2023/02/18 03:58:32;;;;;;;;;;;;;;;9.22;39.29;99353.03;4957233;28;19949;-71
2023/02/18 04:00:57;;;;;;;;;;;;;;;9.20;39.32;99353.13;4956602;28;19922;-71
2023/02/18 04:03:22;;;;;;;;;;;;;;;9.19;39.36;99355.81;4957164;28;20421;-71
2023/02/18 04:05:48;;;;;;;;;;;;;;;9.14;39.24;99353.50;4957250;28;19918;-71
2023/02/18 04:08:13;;;;;;;;;;;;;;;9.09;38.95;99355.50;4943307;28;19921;-72
2023/02/18 04:10:38;;;;;;;;;;;;;;;9.07;38.98;99364.38;4992673;28;19922;-70
2023/02/18 04:13:04;;;;;;;;;;;;;;;9.04;39.46;99357.56;4977198;28;20009;-71
2023/02/18 04:15:29;;;;;;;;;;;;;;;9.00;39.25;99348.28;4975630;28;19922;-70
2023/02/18 04:17:54;;;;;;;;;;;;;;;8.96;39.30;99339.78;4959783;28;19922;-70
2023/02/18 04:20:21;;;;;;;;;;;;;;;8.93;39.22;99344.34;4976444;28;19917;-70
2023/02/18 04:22:46;;;;;;;;;;;;;;;8.87;39.68;99346.41;4993682;28;19976;-71
2023/02/18 04:25:12;;;;;;;;;;;;;;;8.83;39.41;99344.91;4960042;28;20332;-71
2023/02/18 04:27:37;;;;;;;;;;;;;;;8.79;39.39;99332.16;4959954;28;19917;-71
2023/02/18 04:30:03;;;;;;;;;;;;;;;8.78;39.58;99346.94;4976004;28;19928;-71
2023/02/18 04:32:28;;;;;;;;;;;;;;;8.75;39.42;99346.28;4959934;28;19997;-71
2023/02/18 04:34:53;;;;;;;;;;;;;;;8.74;39.82;99361.06;4975351;28;19922;-71
2023/02/18 04:37:19;;;;;;;;;;;;;;;8.72;39.81;99352.50;4976292;28;20297;-71
2023/02/18 04:39:44;;;;;;;;;;;;;;;8.68;39.97;99335.38;4976004;28;19961;-71
2023/02/18 04:42:09;;;;;;;;;;;;;;;8.68;39.60;99330.19;4976284;28;19922;-71
2023/02/18 04:44:35;;;;;;;;;;;;;;;8.69;39.41;99324.88;4976069;28;19918;-72
2023/02/18 04:47:01;;;;;;;;;;;;;;;8.72;39.99;99330.84;4976362;28;20008;-71
2023/02/18 04:49:26;;;;;;;;;;;;;;;8.74;39.38;99332.44;4975996;28;19921;-71
2023/02/18 04:51:51;;;;;;;;;;;;;;;8.75;39.43;99331.50;4975421;28;20468;-71
2023/02/18 04:54:17;;;;;;;;;;;;;;;8.78;39.59;99330.50;4975956;28;19924;-71
2023/02/18 04:56:42;;;;;;;;;;;;;;;8.81;39.31;99331.16;4959375;28;20016;-71
2023/02/18 04:59:07;;;;;;;;;;;;;;;8.85;39.69;99327.41;4975749;28;19925;-72
2023/02/18 05:01:33;;;;;;;;;;;;;;;8.85;39.14;99322.19;4995211;28;19917;-71
2023/02/18 05:03:58;;;;;;;;;;;;;;;8.85;39.53;99322.19;4979634;28;19918;-72
2023/02/18 05:06:23;;;;;;;;;;;;;;;8.82;39.17;99330.22;4963703;28;20292;-71
2023/02/18 05:08:48;;;;;;;;;;;;;;;8.81;39.64;99320.72;4979326;28;20500;-71
2023/02/18 05:11:14;;;;;;;;;;;;;;;8.79;39.84;99327.81;4963015;28;19921;-71
2023/02/18 05:13:40;;;;;;;;;;;;;;;8.82;39.54;99330.22;4979487;28;19922;-72
2023/02/18 05:16:05;;;;;;;;;;;;;;;8.83;39.53;99331.88;4997174;28;19976;-71
2023/02/18 05:18:30;;;;;;;;;;;;;;;8.81;39.77;99338.97;4979389;28;19918;-71
2023/02/18 05:20:56;;;;;;;;;;;;;;;8.84;39.70;99340.56;4997259;28;19972;-72
2023/02/18 05:23:21;;;;;;;;;;;;;;;8.92;39.23;99340.06;4979541;28;19925;-71
2023/02/18 05:25:46;;;;;;;;;;;;;;;8.98;39.28;99330.16;4979386;28;19918;-71
2023/02/18 05:28:12;;;;;;;;;;;;;;;9.21;39.18;99325.28;4979293;28;19925;-73
2023/02/18 05:30:37;;;;;;;;;;;;;;;9.26;39.00;99332.84;4994205;28;19922;-72
2023/02/18 05:33:02;;;;;;;;;;;;;;;9.27;38.85;99330.13;4978953;28;19928;-72
2023/02/18 05:35:28;;;;;;;;;;;;;;;9.30;38.90;99342.97;4962946;28;19918;-71
2023/02/18 05:37:53;;;;;;;;;;;;;;;9.39;38.64;99334.59;4979192;28;19948;-72
2023/02/18 05:40:18;;;;;;;;;;;;;;;9.56;38.53;99338.75;4978993;28;20328;-71
2023/02/18 05:42:44;;;;;;;;;;;;;;;9.89;37.98;99329.72;4979115;28;19922;-71
2023/02/18 05:45:09;;;;;;;;;;;;;;;10.00;37.75;99328.22;4962585;28;19918;-72
2023/02/18 05:47:34;;;;;;;;;;;;;;;10.11;37.57;99333.56;4978941;28;20289;-72
2023/02/18 05:50:00;;;;;;;;;;;;;;;10.17;37.31;99338.38;4978977;28;20320;-72
2023/02/18 05:52:25;;;;;;;;;;;;;;;10.25;37.35;99330.91;4978969;28;19922;-72
2023/02/18 05:54:50;;;;;;;;;;;;;;;10.32;37.22;99320.88;4979142;28;20400;-72
2023/02/18 05:57:16;;;;;;;;;;;;;;;10.39;37.17;99327.41;4978932;28;19918;-72
2023/02/18 05:59:41;;;;;;;;;;;;;;;10.43;36.85;99334.09;4978741;28;19943;-72
2023/02/18 06:02:06;;;;;;;;;;;;;;;10.49;36.65;99338.91;4978841;28;20391;-72
2023/02/18 06:04:31;;;;;;;;;;;;;;;10.56;36.46;99338.50;4978602;28;19965;-72
2023/02/18 06:06:57;;;;;;;;;;;;;;;10.66;36.12;99332.56;4978634;28;19922;-71
2023/02/18 06:09:22;;;;;;;;;;;;;;;10.76;36.01;99324.13;4996116;28;20301;-71
2023/02/18 06:11:48;;;;;;;;;;;;;;;10.81;36.05;99329.84;4977621;28;19922;-70
2023/02/18 06:14:13;;;;;;;;;;;;;;;10.84;36.27;99333.09;4976572;28;20005;-72
2023/02/18 06:16:38;;;;;;;;;;;;;;;10.89;36.38;99332.78;4983918;28;19922;-72
2023/02/18 06:19:03;;;;;;;;;;;;;;;10.94;36.23;99353.38;5015452;28;20278;-73
2023/02/18 06:21:29;;;;;;;;;;;;;;;10.97;36.10;99351.38;4981276;28;20016;-72
2023/02/18 06:23:54;;;;;;;;;;;;;;;10.98;35.96;99345.22;5015397;28;20071;-72
2023/02/18 06:26:20;;;;;;;;;;;;;;;11.01;35.95;99346.78;4981064;28;19976;-73
2023/02/18 06:28:45;;;;;;;;;;;;;;;11.02;35.91;99357.13;4997329;28;19918;-73
2023/02/18 06:31:10;;;;;;;;;;;;;;;10.99;35.97;99351.25;4998301;28;19917;-71
2023/02/18 06:33:35;;;;;;;;;;;;;;;11.00;35.86;99339.88;4997510;28;19925;-70
2023/02/18 06:36:02;;;;;;;;;;;;;;;11.01;35.68;99338.97;4997829;28;20384;-71
2023/02/18 06:38:27;;;;;;;;;;;;;;;11.04;35.76;99331.72;4974756;28;20312;-71
2023/02/18 06:40:52;;;;;;;;;;;;;;;11.07;35.98;99330.69;4978273;28;19924;-70
2023/02/18 06:43:18;;;;;;;;;;;;;;;11.14;40.43;99324.09;4961567;28;19918;-71
2023/02/18 06:45:43;;;;;;;;;;;;;;;11.21;39.80;99312.28;4978232;28;19999;-72
2023/02/18 06:48:09;;;;;;;;;;;;;;;11.25;38.46;99317.31;4977853;28;19918;-72
2023/02/18 06:50:34;;;;;;;;;;;;;;;11.21;38.16;99308.81;4962070;28;19918;-72
2023/02/18 06:52:59;;;;;;;;;;;;;;;11.18;37.23;99309.03;4978072;28;19918;-72
2023/02/18 06:55:25;;;;;;;;;;;;;;;11.17;37.80;99308.19;4961272;28;20389;-71
2023/02/18 06:57:50;;;;;;;;;;;;;;;11.19;37.67;99310.72;4977922;28;19992;-72
2023/02/18 07:00:15;;;;;;;;;;;;;;;11.23;44.35;99307.78;4962393;28;19925;-73
2023/02/18 07:02:41;;;;;;;;;;;;;;;11.78;50.49;99320.50;4969028;28;19926;-71
2023/02/18 07:05:06;;;;;;;;;;;;;;;12.03;49.20;99308.28;4977052;28;19922;-71
2023/02/18 07:07:32;;;;;;;;;;;;;;;12.03;45.74;99316.13;4977559;28;19924;-72
2023/02/18 07:09:57;;;;;;;;;;;;;;;11.98;42.85;99313.84;4994563;28;19975;-71
2023/02/18 07:12:22;;;;;;;;;;;;;;;11.98;41.64;99319.06;4977433;28;19929;-72
2023/02/18 07:14:47;;;;;;;;;;;;;;;12.03;40.21;99319.56;4977179;28;19922;-71
2023/02/18 07:17:13;;;;;;;;;;;;;;;12.15;43.95;99312.63;4979320;28;20369;-73
2023/02/18 07:19:39;;;;;;;;;;;;;;;12.47;47.43;99317.25;4978801;28;19918;-73
2023/02/18 07:22:04;;;;;;;;;;;;;;;12.58;43.13;99314.66;4977790;28;19968;-74
2023/02/18 07:24:29;;;;;;;;;;;;;;;12.68;40.83;99314.78;4976848;28;20365;-72
2023/02/18 07:26:55;;;;;;;;;;;;;;;12.84;47.60;99307.44;4994608;28;20021;-71
2023/02/18 07:29:20;;;;;;;;;;;;;;;13.07;45.70;99317.09;4975653;28;20009;-72
2023/02/18 07:31:45;;;;;;;;;;;;;;;13.17;43.20;99297.94;4992723;28;19972;-71
2023/02/18 07:34:11;;;;;;;;;;;;;;;13.27;40.07;99298.03;4993945;28;19918;-70
2023/02/18 07:36:37;;;;;;;;;;;;;;;13.56;57.79;99306.22;4993391;28;19917;-70
2023/02/18 07:39:02;;;;;;;;;;;;;;;13.85;48.46;99299.59;4992941;28;19918;-73
2023/02/18 07:41:27;;;;;;;;;;;;;;;14.08;45.32;99292.50;4977019;28;19941;-69
2023/02/18 07:43:53;;;;;;;;;;;;;;;14.43;43.90;99284.31;4976600;28;19922;-69
2023/02/18 07:46:18;;;;;;;;;;;;;;;15.24;58.03;99282.81;4992850;28;20369;-73
2023/02/18 07:48:43;;;;;;;;;;;;;;;16.58;51.68;99271.66;4983768;28;19921;-77
2023/02/18 07:51:09;;;;;;;;;;;;;;;17.16;47.42;99286.47;4982590;28;19929;-77
2023/02/18 07:53:35;;;;;;;;;;;;;;;17.27;40.62;99282.81;4958692;28;20068;-78
2023/02/18 07:56:00;;;;;;;;;;;;;;;17.20;38.35;99294.09;4976982;28;19918;-75
2023/02/18 07:58:26;;;;;;;;;;;;;;;17.15;35.27;99299.81;4978590;28;20030;-75
2023/02/18 08:00:54;;;;;;;;;;;;;;;17.07;34.15;99312.91;4957707;28;19914;-73
2023/02/18 08:03:20;;;;;;;;;;;;;;;17.29;35.66;99304.59;4982128;28;19922;-73
2023/02/18 08:05:49;;;;;;;;;;;;;;;17.43;34.24;99303.28;4974833;28;19914;-76
2023/02/18 08:08:15;;;;;;;;;;;;;;;17.31;32.99;99288.63;4950385;28;20015;-74
2023/02/18 08:10:41;;;;;;;;;;;;;;;17.24;31.76;99291.03;4972462;28;19969;-74
2023/02/18 08:13:06;;;;;;;;;;;;;;;17.17;31.12;99282.88;4991989;28;19926;-75
2023/02/18 08:15:31;;;;;;;;;;;;;;;17.46;41.31;99284.53;4957593;28;19929;-70
2023/02/18 08:17:57;;;;;;;;;;;;;;;17.45;35.34;99282.03;4981975;28;19925;-72
2023/02/18 08:20:22;;;;;;;;;;;;;;;17.37;33.18;99274.84;4990859;28;19925;-71
2023/02/18 08:22:48;;;;;;;;;;;;;;;17.35;31.60;99271.53;4982266;28;20392;-73
2023/02/18 08:25:13;;;;;;;;;;;;;;;17.33;30.79;99274.31;4991173;28;20385;-73
2023/02/18 08:27:38;;;;;;;;;;;;;;;17.25;30.14;99265.47;4957731;28;19972;-71
2023/02/18 08:30:04;;;;;;;;;;;;;;;17.10;29.40;99283.59;4990771;28;19926;-80
2023/02/18 08:32:29;;;;;;;;;;;;;;;17.03;29.21;99280.72;4965837;28;20682;-77
2023/02/18 08:34:54;;;;;;;;;;;;;;;17.01;34.63;99274.75;4974131;28;19924;-73
2023/02/18 08:37:20;;;;;;;;;;;;;;;16.89;34.51;99274.09;4990296;28;20385;-73
2023/02/18 08:39:45;;;;;;;;;;;;;;;16.75;33.98;99270.09;4973668;28;19984;-72
2023/02/18 08:42:10;;;;;;;;;;;;;;;16.69;32.09;99259.31;4957195;28;19961;-73
2023/02/18 08:44:36;;;;;;;;;;;;;;;16.63;44.56;99255.41;4972078;28;20342;-72
2023/02/18 08:47:01;;;;;;;;;;;;;;;16.64;40.31;99243.91;4973511;28;20320;-71
2023/02/18 08:49:26;;;;;;;;;;;;;;;16.52;37.07;99242.41;4991260;28;19952;-74
2023/02/18 08:51:51;;;;;;;;;;;;;;;16.35;34.91;99234.28;4971415;28;19918;-70
2023/02/18 08:54:17;;;;;;;;;;;;;;;16.24;33.92;99234.41;4990992;28;19976;-69
2023/02/18 08:56:42;;;;;;;;;;;;;;;16.13;33.03;99224.03;4974533;28;19985;-71
2023/02/18 08:59:08;;;;;;;;;;;;;;;16.06;32.78;99229.03;4972825;28;19922;-74
2023/02/18 09:01:33;;;;;;;;;;;;;;;16.00;32.28;99225.19;4957466;28;20412;-73
2023/02/18 09:03:58;;;;;;;;;;;;;;;15.98;32.29;99223.66;4990759;28;19917;-75
2023/02/18 09:06:24;;;;;;;;;;;;;;;16.04;31.75;99233.63;4972459;28;19922;-72
2023/02/18 09:08:49;;;;;;;;;;;;;;;16.12;31.43;99232.94;4970445;28;19958;-70
2023/02/18 09:11:14;;;;;;;;;;;;;;;16.50;40.11;99224.13;4968390;28;19918;-75
2023/02/18 09:13:40;;;;;;;;;;;;;;;16.79;43.64;99229.28;4956790;28;19925;-72
2023/02/18 09:16:06;;;;;;;;;;;;;;;17.16;42.49;99222.34;4972093;28;19922;-75
2023/02/18 09:18:31;;;;;;;;;;;;;;;18.03;47.53;99230.66;4965053;28;19921;-79
2023/02/18 09:20:57;;;;;;;;;;;;;;;18.88;45.88;99222.94;4971363;28;19922;-76
2023/02/18 09:23:23;;;;;;;;;;;;;;;19.40;43.77;99226.41;4973731;28;20407;-74
2023/02/18 09:25:48;;;;;;;;;;;;;;;20.08;39.62;99221.88;4974575;28;19985;-74
2023/02/18 09:28:14;;;;;;;;;;;;;;;20.60;35.87;99206.38;4974827;28;20360;-74
2023/02/18 09:30:39;;;;;;;;;;;;;;;20.66;33.47;99217.34;4958003;28;19921;-78
2023/02/18 09:33:04;;;;;;;;;;;;;;;20.91;31.63;99210.13;4974973;28;19925;-79
2023/02/18 09:35:30;;;;;;;;;;;;;;;21.27;31.08;99199.81;4974850;28;19929;-79
2023/02/18 09:37:56;;;;;;;;;;;;;;;21.68;31.00;99202.25;4959174;28;19949;-79
2023/02/18 09:40:30;;;;;;;;;;;;;;;21.62;33.15;99205.59;4959244;28;20444;-80
2023/02/18 09:42:56;;;;;;;;;;;;;;;21.63;35.21;99211.72;4958688;28;19984;-78
2023/02/18 09:45:21;;;;;;;;;;;;;;;21.81;35.19;99208.78;4974878;28;19918;-78
2023/02/18 09:47:46;;;;;;;;;;;;;;;22.16;37.04;99209.16;4976477;28;19991;-73
2023/02/18 09:50:19;;;;;;;;;;;;;;;22.17;37.99;99203.66;4978426;28;19918;-76
2023/02/18 09:52:44;;;;;;;;;;;;;;;22.30;37.14;99191.63;4978203;28;19965;-80
2023/02/18 09:55:43;;;;;;;;;;;;;;;22.35;43.45;99187.38;4961870;28;20007;-77
2023/02/18 09:58:15;;;;;;;;;;;;;;;22.48;39.43;99178.75;4916449;29;19919;-80
2023/02/18 10:00:41;;;;;;;;;;;;;;;22.54;36.81;99183.34;4900603;29;19923;-78
2023/02/18 10:03:10;;;;;;;;;;;;;;;22.56;34.72;99177.84;4901198;29;19919;-78
2023/02/18 10:05:36;;;;;;;;;;;;;;;22.47;33.70;99176.28;4900440;29;19926;-80
2023/02/18 10:08:12;;;;;;;;;;;;;;;22.39;32.58;99178.03;4900705;29;20334;-79
2023/02/18 10:10:41;;;;;;;;;;;;;;;22.34;31.96;99171.59;4900003;29;19985;-78
2023/02/18 10:13:14;;;;;;;;;;;;;;;22.54;30.78;99170.06;4901003;29;19919;-78
2023/02/18 10:15:39;;;;;;;;;;;;;;;22.69;29.64;99172.72;4900253;29;20647;-78
2023/02/18 10:18:05;;;;;;;;;;;;;;;22.92;29.03;99163.78;4884718;29;20414;-81
2023/02/18 10:20:30;;;;;;;;;;;;;;;23.01;35.26;99164.47;4900005;29;19919;-77
2023/02/18 10:22:56;;;;;;;;;;;;;;;23.17;33.93;99158.16;4884979;29;19919;-75
2023/02/18 10:25:21;;;;;;;;;;;;;;;23.35;33.47;99147.88;4884753;29;20069;-79
2023/02/18 10:27:48;;;;;;;;;;;;;;;23.17;33.50;99152.84;4900753;29;19919;-78
2023/02/18 10:30:16;;;;;;;;;;;;;;;23.03;33.47;99155.31;4884389;29;20394;-74
2023/02/18 10:32:44;;;;;;;;;;;;;;;22.79;31.82;99142.31;4920621;28;19952;-79
2023/02/18 10:35:15;;;;;;;;;;;;;;;22.57;30.33;99132.44;4958248;28;19922;-76
2023/02/18 10:37:47;;;;;;;;;;;;;;;22.59;31.01;99125.09;4973999;28;19925;-73
2023/02/18 10:40:15;;;;;;;;;;;;;;;22.70;31.21;99122.97;4974209;28;19969;-74
2023/02/18 10:42:46;;;;;;;;;;;;;;;22.87;31.58;99128.91;4973690;28;20309;-78
2023/02/18 10:45:15;;;;;;;;;;;;;;;22.89;31.49;99125.03;4993327;28;20270;-73
2023/02/18 10:47:59;;;;;;;;;;;;;;;22.82;31.86;99120.66;4976587;28;20636;-75
2023/02/18 10:50:30;;;;;;;;;;;;;;;22.72;33.01;99112.97;4994552;28;19948;-77
2023/02/18 10:52:56;;;;;;;;;;;;;;;22.73;32.87;99112.78;4970889;28;19976;-79
2023/02/18 10:55:32;;;;;;;;;;;;;;;22.87;32.96;99107.63;4966562;28;19922;-78
2023/02/18 10:57:58;;;;;;;;;;;;;;;23.15;32.05;99107.75;4956721;28;19918;-80
2023/02/18 11:00:25;;;;;;;;;;;;;;;23.30;30.56;99107.69;4959724;28;20068;-82
2023/02/18 11:03:09;;;;;;;;;;;;;;;23.26;29.14;99106.41;4966980;28;20364;-82
2023/02/18 11:05:34;;;;;;;;;;;;;;;23.12;28.40;99100.97;4973694;28;19926;-83
2023/02/18 11:08:01;;;;;;;;;;;;;;;23.00;27.51;99101.63;4961250;28;19994;-83
2023/02/18 11:10:30;;;;;;;;;;;;;;;22.88;25.99;99099.47;4976270;28;19924;-81
2023/02/18 11:13:02;;;;;;;;;;;;;;;22.69;29.23;99095.56;4975255;28;19933;-73
2023/02/18 11:15:27;;;;;;;;;;;;;;;22.48;28.61;99095.50;4960572;28;20045;-76
2023/02/18 11:17:58;;;;;;;;;;;;;;;22.34;28.47;99097.13;4975210;28;19926;-77
2023/02/18 11:20:31;;;;;;;;;;;;;;;22.25;33.92;99092.91;4979308;28;20424;-73
2023/02/18 11:22:57;;;;;;;;;;;;;;;22.26;31.55;99086.56;4975358;28;19972;-74
2023/02/18 11:25:27;;;;;;;;;;;;;;;22.37;27.96;99086.13;4976623;28;20016;-73
2023/02/18 11:27:56;;;;;;;;;;;;;;;22.37;27.56;99081.63;4959683;28;20005;-75
2023/02/18 11:30:24;;;;;;;;;;;;;;;22.36;26.88;99082.66;4958063;28;19922;-83
2023/02/18 11:32:51;;;;;;;;;;;;;;;22.41;26.84;99074.13;4991443;28;19924;-75
2023/02/18 11:35:20;;;;;;;;;;;;;;;22.42;30.99;99072.28;4973975;28;19972;-83
2023/02/18 11:37:46;;;;;;;;;;;;;;;22.41;34.10;99071.47;4958192;28;19969;-80
2023/02/18 11:40:18;;;;;;;;;;;;;;;22.34;32.01;99067.88;4975106;28;19956;-73
2023/02/18 11:42:44;;;;;;;;;;;;;;;22.32;32.14;99059.28;4978025;28;20025;-71
2023/02/18 11:45:11;;;;;;;;;;;;;;;22.44;29.03;99049.81;4958555;28;20016;-81
2023/02/18 11:47:36;;;;;;;;;;;;;;;22.35;28.47;99059.72;4988197;28;19961;-82
2023/02/18 11:50:08;;;;;;;;;;;;;;;22.36;29.75;99055.22;4980340;28;19918;-82
2023/02/18 11:52:34;;;;;;;;;;;;;;;22.38;30.29;99058.53;4978126;28;19924;-80
2023/02/18 11:55:01;;;;;;;;;;;;;;;22.41;28.93;99052.84;4976123;28;19968;-77
2023/02/18 11:57:26;;;;;;;;;;;;;;;22.49;27.89;99039.44;4960611;28;20005;-76
2023/02/18 11:59:54;;;;;;;;;;;;;;;22.51;27.25;99037.41;4972901;28;20016;-81
2023/02/18 12:02:25;;;;;;;;;;;;;;;22.59;27.11;99039.94;4976214;28;19929;-75
2023/02/18 12:04:51;;;;;;;;;;;;;;;22.65;26.22;99030.41;4975853;28;19917;-76
2023/02/18 12:07:24;;;;;;;;;;;;;;;22.66;25.88;99025.91;4976765;28;20013;-76
2023/02/18 12:09:50;;;;;;;;;;;;;;;22.64;25.95;99025.28;4972943;28;19965;-76
2023/02/18 12:12:37;;;;;;;;;;;;;;;22.42;24.81;99019.91;4976145;28;19921;-77
2023/02/18 12:15:02;;;;;;;;;;;;;;;22.33;24.89;99013.88;4960186;28;20017;-76
2023/02/18 12:17:40;;;;;;;;;;;;;;;22.25;24.62;99006.00;4960370;28;19954;-76
2023/02/18 12:20:14;;;;;;;;;;;;;;;22.03;24.51;99000.59;4993713;28;20385;-76
2023/02/18 12:22:43;;;;;;;;;;;;;;;21.98;25.12;99003.00;4976283;28;19918;-77
2023/02/18 12:25:21;;;;;;;;;;;;;;;21.83;24.82;98994.19;4960132;28;20016;-77
2023/02/18 12:27:46;;;;;;;;;;;;;;;21.66;25.38;98993.53;4993822;28;19918;-76
2023/02/18 12:30:24;;;;;;;;;;;;;;;21.60;25.49;98989.81;4993869;28;20294;-76
2023/02/18 12:32:50;;;;;;;;;;;;;;;21.52;25.54;98981.88;4976012;28;19924;-74
2023/02/18 12:35:33;;;;;;;;;;;;;;;21.35;24.79;98988.34;4975961;28;20311;-75
2023/02/18 12:38:02;;;;;;;;;;;;;;;21.19;25.05;98984.00;4976863;28;19917;-75
2023/02/18 12:40:27;;;;;;;;;;;;;;;21.01;25.26;98982.50;4993360;28;19925;-79
2023/02/18 12:43:11;;;;;;;;;;;;;;;20.88;25.57;98979.63;4975878;28;19918;-77
2023/02/18 12:45:37;;;;;;;;;;;;;;;20.85;25.01;98978.16;4976123;28;19922;-76
2023/02/18 12:48:40;;;;;;;;;;;;;;;20.75;25.15;98977.56;4976218;28;19918;-75
2023/02/18 12:51:11;;;;;;;;;;;;;;;20.70;25.21;98971.94;4933828;29;19922;-76